Christine Anderson — WCN2606 — position and weather

sailwx.info

Track history (hours):
 
Tides and Currents Weather Stations Pressure Air Temp Water Temp Dewpoint Dewpoint Depression Visibility Wind Speed Wind Dir Waves Ship Positions

Christine Anderson

Owner: PIERCE, COUNTY OF, TACOMA, WA. More information available from US FCC via Universal Licensing System and Coast Guard Vessel Documentation Center.

Last reported at 2015-May-24 04:33 UTC. Time now 2015-May-24 05:07 UTC.
Position N 47°10' W 122°36'.

MMSI: 366659730.

Date/timePositionNaut miles runAvg speedWind from/ knotsBaromVisibWave heightAir tempDewpointWater temp
2015-May-24 04:33N 47°10' W 122°36'0 0.0
2015-May-24 03:33N 47°10' W 122°36'0 0.4
2015-May-24 02:32N 47°11' W 122°37'0 0.2
2015-May-24 01:33N 47°11' W 122°37'3 2.7
2015-May-24 00:32N 47°11' W 122°41'0 0.0
2015-May-23 23:31N 47°11' W 122°41'0 0.0
2015-May-23 22:31N 47°11' W 122°41'0 0.0
2015-May-23 21:31N 47°11' W 122°41'3 3.1
2015-May-23 20:33N 47°10' W 122°36'3 3.0
2015-May-23 19:33N 47°11' W 122°40'3 3.0
2015-May-23 18:33N 47°10' W 122°36'3 3.0
2015-May-23 17:33N 47°11' W 122°41'3 5.8
2015-May-23 17:02N 47°10' W 122°36'3 6.3
2015-May-23 16:33N 47°11' W 122°41'3 6.7
2015-May-23 16:06N 47°10' W 122°36'3 4.6
2015-May-23 15:33N 47°11' W 122°40'0 0.2
2015-May-23 14:33N 47°11' W 122°40'3 2.7
2015-May-23 13:35N 47°10' W 122°36'0 6.6
2015-May-23 13:32N 47°11' W 122°36'0 0.4
2015-May-23 12:33N 47°10' W 122°36'3 0.4
2015-May-23 05:33N 47°11' W 122°40'2 2.1
2015-May-23 04:33N 47°11' W 122°37'1 0.5
2015-May-23 03:32N 47°10' W 122°36'0 0.0
2015-May-23 02:33N 47°10' W 122°36'0 0.0
2015-May-23 01:33N 47°10' W 122°36'2 1.6
2015-May-23 00:33N 47°11' W 122°38'0 0.3
2015-May-22 23:33N 47°11' W 122°39'2 3.8
2015-May-22 23:03N 47°10' W 122°36'3 5.8
2015-May-22 22:33N 47°11' W 122°40'0 0.1
2015-May-22 21:31N 47°11' W 122°41'3 3.1
2015-May-22 20:33N 47°10' W 122°36'0 0.0
2015-May-22 20:32N 47°10' W 122°36'3 2.4
2015-May-22 19:18N 47°11' W 122°40'3 4.4
2015-May-22 18:37N 47°10' W 122°36'0 0.0
2015-May-22 18:33N 47°10' W 122°36'3 2.9
2015-May-22 17:33N 47°11' W 122°40'0 0.1
2015-May-22 16:33N 47°11' W 122°40'0 0.1
2015-May-22 15:32N 47°11' W 122°40'0 0.1
2015-May-22 14:33N 47°11' W 122°40'3 2.5
2015-May-22 13:33N 47°10' W 122°36'0 0.0
2015-May-22 12:33N 47°10' W 122°36'1 0.1
2015-May-22 04:33N 47°10' W 122°37'1 1.0
2015-May-22 03:33N 47°10' W 122°36'3 3.8
2015-May-22 02:48N 47°11' W 122°40'311.2
2015-May-22 02:33N 47°11' W 122°36'0 0.2
2015-May-22 01:33N 47°11' W 122°37'2 2.2
2015-May-22 00:33N 47°11' W 122°40'0 0.5
2015-May-21 23:33N 47°11' W 122°40'1 2.0
2015-May-21 22:50N 47°11' W 122°38'1 4.7
2015-May-21 22:32N 47°11' W 122°40'0 0.1
2015-May-21 21:27N 47°11' W 122°40'3 3.2
2015-May-21 20:33N 47°10' W 122°36'3 2.9
2015-May-21 19:33N 47°11' W 122°40'3 3.0
2015-May-21 18:33N 47°10' W 122°36'3 2.5
2015-May-21 17:23N 47°11' W 122°40'0 0.0
2015-May-21 16:24N 47°11' W 122°41'0 0.1
2015-May-21 15:31N 47°11' W 122°41'1 0.6
2015-May-21 14:33N 47°11' W 122°40'2 2.4
2015-May-21 13:33N 47°11' W 122°36'0 0.3
2015-May-21 12:36N 47°10' W 122°36'0 0.0
2015-May-21 12:28N 47°10' W 122°36'0 0.0
2015-May-21 03:19N 47°10' W 122°36'0 0.4
2015-May-21 02:33N 47°11' W 122°36'0 0.1
2015-May-21 01:33N 47°11' W 122°37'0 4.6
2015-May-21 01:27N 47°10' W 122°36'3 3.3
2015-May-21 00:33N 47°11' W 122°41'0 0.0
2015-May-20 23:28N 47°11' W 122°41'3 5.4
2015-May-20 22:55N 47°11' W 122°36'3 6.1
2015-May-20 22:27N 47°11' W 122°40'0 0.1
2015-May-20 21:30N 47°11' W 122°41'3 3.2
2015-May-20 20:34N 47°10' W 122°36'3 2.7
2015-May-20 19:33N 47°11' W 122°40'3 2.7
2015-May-20 18:33N 47°10' W 122°36'3 2.5
2015-May-20 17:23N 47°11' W 122°40'0 0.6
2015-May-20 16:33N 47°11' W 122°40'2 3.2
2015-May-20 15:48N 47°10' W 122°36'210.1
2015-May-20 15:33N 47°11' W 122°40'0 0.0
2015-May-20 14:33N 47°11' W 122°40'2 2.4
2015-May-20 13:33N 47°10' W 122°36'0 0.0
2015-May-20 12:33N 47°10' W 122°36'0 0.0
2015-May-20 03:24N 47°10' W 122°36'0 0.0
2015-May-20 02:38N 47°10' W 122°36'0 0.0
2015-May-20 02:33N 47°10' W 122°36'0 0.0
2015-May-20 01:34N 47°10' W 122°36'2 1.9
2015-May-20 00:33N 47°11' W 122°39'2 6.7
2015-May-20 00:16N 47°10' W 122°36'3 4.0
2015-May-19 23:32N 47°11' W 122°40'0 0.2
2015-May-19 22:32N 47°11' W 122°40'0 0.2
2015-May-19 21:28N 47°11' W 122°40'3 3.2
2015-May-19 20:33N 47°10' W 122°36'3 2.5
2015-May-19 19:23N 47°11' W 122°40'3 3.5
2015-May-19 18:33N 47°10' W 122°36'3 2.8
2015-May-19 17:29N 47°11' W 122°41'0 0.1
2015-May-19 16:32N 47°11' W 122°40'0 0.0
2015-May-19 15:33N 47°11' W 122°40'0 0.3
2015-May-19 14:33N 47°11' W 122°40'3 2.6
2015-May-19 13:33N 47°10' W 122°36'0 0.0
2015-May-19 12:33N 47°10' W 122°36'0 0.0
2015-May-19 03:21N 47°10' W 122°36'0 0.4
2015-May-19 02:33N 47°11' W 122°36'0 0.3
2015-May-19 01:33N 47°10' W 122°36'0 0.2
2015-May-19 01:26N 47°10' W 122°36'3 3.4
2015-May-19 00:33N 47°11' W 122°40'3 7.7
2015-May-19 00:10N 47°10' W 122°36'3 4.3
2015-May-18 23:28N 47°11' W 122°41'3 6.2
2015-May-18 22:59N 47°10' W 122°36'3 6.4
2015-May-18 22:31N 47°11' W 122°41'0 0.4
2015-May-18 21:24N 47°11' W 122°40'3 3.1
2015-May-18 20:32N 47°10' W 122°36'3 2.6
2015-May-18 19:33N 47°11' W 122°40'3 2.5
2015-May-18 18:32N 47°10' W 122°36'3 2.6
2015-May-18 17:33N 47°11' W 122°40'0 0.3
2015-May-18 16:32N 47°11' W 122°40'0 0.3
2015-May-18 15:33N 47°11' W 122°40'0 0.1
2015-May-18 14:33N 47°11' W 122°40'2 2.6
2015-May-18 13:36N 47°10' W 122°36'0 0.0
2015-May-18 13:33N 47°10' W 122°36'0 0.0
2015-May-18 12:33N 47°10' W 122°36'1 0.2
2015-May-18 04:33N 47°10' W 122°38'2 5.7
2015-May-18 04:15N 47°11' W 122°40'3 3.7
2015-May-18 03:33N 47°10' W 122°36'0 0.0
2015-May-18 02:32N 47°10' W 122°36'0 0.4
2015-May-18 01:33N 47°11' W 122°37'3 2.7
2015-May-18 00:34N 47°11' W 122°41'0 0.2
2015-May-17 23:26N 47°11' W 122°40'3 7.5
2015-May-17 23:03N 47°10' W 122°36'3 3.9
2015-May-17 22:24N 47°11' W 122°40'1 0.7
2015-May-17 21:21N 47°11' W 122°39'2 2.8
2015-May-17 20:42N 47°10' W 122°36'0 0.0
2015-May-17 20:34N 47°10' W 122°36'0 0.0
2015-May-17 20:12N 47°10' W 122°36'3 4.5
2015-May-17 19:33N 47°11' W 122°40'0 0.1
2015-May-17 19:16N 47°11' W 122°41'3 4.2
2015-May-17 18:34N 47°10' W 122°36'2 2.4
2015-May-17 17:33N 47°11' W 122°40'1 0.4
2015-May-17 16:16N 47°11' W 122°41'0 0.0
2015-May-17 15:16N 47°11' W 122°41'0 0.4
2015-May-17 14:32N 47°11' W 122°40'3 2.8
2015-May-17 13:33N 47°10' W 122°36'0 0.3
2015-May-17 13:32N 47°10' W 122°36'3 0.3
2015-May-17 05:33N 47°11' W 122°40'3 2.6
2015-May-17 04:33N 47°10' W 122°36'0 0.0
2015-May-17 03:33N 47°10' W 122°36'0 0.4
2015-May-17 02:33N 47°11' W 122°37'3 4.9
2015-May-17 02:01N 47°11' W 122°40'3 5.6
2015-May-17 01:33N 47°11' W 122°36'3 2.5
2015-May-17 00:29N 47°11' W 122°40'0 0.0
2015-May-16 23:30N 47°11' W 122°40'0 0.4
2015-May-16 22:27N 47°11' W 122°40'0 0.5
2015-May-16 21:26N 47°11' W 122°40'3 3.3
2015-May-16 20:33N 47°10' W 122°36'3 3.0
2015-May-16 19:33N 47°11' W 122°41'3 3.0
2015-May-16 18:33N 47°10' W 122°36'3 2.5
2015-May-16 17:33N 47°11' W 122°40'0 0.2
2015-May-16 16:33N 47°11' W 122°40'0 0.3
2015-May-16 15:33N 47°11' W 122°40'0 0.3
2015-May-16 14:32N 47°11' W 122°40'3 2.7
2015-May-16 13:33N 47°10' W 122°36'0 0.0
2015-May-16 12:33N 47°10' W 122°36'0 0.0
2015-May-16 06:07N 47°10' W 122°36'3 4.7
2015-May-16 05:33N 47°11' W 122°40'3 2.6
2015-May-16 04:33N 47°10' W 122°36'0 0.0
2015-May-16 03:33N 47°10' W 122°36'0 0.0
2015-May-16 02:32N 47°10' W 122°36'0 0.0
2015-May-16 01:33N 47°10' W 122°36'3 2.9
2015-May-16 00:33N 47°11' W 122°40'0 0.0
2015-May-15 23:32N 47°11' W 122°40'0 0.2
2015-May-15 22:44N 47°11' W 122°40'0 1.2
2015-May-15 22:33N 47°11' W 122°41'0 0.0
2015-May-15 21:26N 47°11' W 122°40'3 2.5
2015-May-15 20:14N 47°10' W 122°36'3 3.5
2015-May-15 19:23N 47°11' W 122°40'3 3.4
2015-May-15 18:31N 47°10' W 122°36'3 2.9
2015-May-15 17:27N 47°11' W 122°41'0 0.4
2015-May-15 16:32N 47°11' W 122°40'0 0.2
2015-May-15 15:33N 47°11' W 122°40'0 0.1
2015-May-15 14:33N 47°11' W 122°40'3 2.6
2015-May-15 13:33N 47°10' W 122°36'0 0.0
2015-May-15 12:33N 47°10' W 122°36'0 0.0
2015-May-15 04:28N 47°10' W 122°36'0 0.0
2015-May-15 03:18N 47°10' W 122°36'1 0.9
2015-May-15 02:33N 47°11' W 122°37'0 0.3
2015-May-15 01:33N 47°11' W 122°37'3 2.6
2015-May-15 00:31N 47°11' W 122°41'0 0.1
2015-May-14 23:31N 47°11' W 122°40'0 0.0
2015-May-14 22:30N 47°11' W 122°40'0 0.0
2015-May-14 21:28N 47°11' W 122°40'3 3.2
2015-May-14 20:33N 47°10' W 122°36'3 2.7
2015-May-14 19:25N 47°11' W 122°41'3 3.5
2015-May-14 18:33N 47°10' W 122°36'3 2.6
2015-May-14 17:33N 47°11' W 122°40'0 0.1
2015-May-14 16:33N 47°11' W 122°40'0 0.0
2015-May-14 15:33N 47°11' W 122°40'0 0.1
2015-May-14 14:33N 47°11' W 122°40'3 2.6
2015-May-14 13:33N 47°10' W 122°36'0 0.0
2015-May-14 12:33N 47°10' W 122°36'  
Track history (hours):
 
Tides and Currents Weather Stations Pressure Air Temp Water Temp Dewpoint Dewpoint Depression Visibility Wind Speed Wind Dir Waves Ship Positions

Christine Anderson

Owner: PIERCE, COUNTY OF, TACOMA, WA. More information available from US FCC via Universal Licensing System and Coast Guard Vessel Documentation Center.

Last reported at 2015-May-24 04:33 UTC. Time now 2015-May-24 05:07 UTC.
Position N 47°10' W 122°36'.

MMSI: 366659730.

Date/timePositionNaut miles runAvg speedWind from/ knotsBaromVisibWave heightAir tempDewpointWater temp
2015-May-24 04:33N 47°10' W 122°36'0 0.0
2015-May-24 03:33N 47°10' W 122°36'0 0.4
2015-May-24 02:32N 47°11' W 122°37'0 0.2
2015-May-24 01:33N 47°11' W 122°37'3 2.7
2015-May-24 00:32N 47°11' W 122°41'0 0.0
2015-May-23 23:31N 47°11' W 122°41'0 0.0
2015-May-23 22:31N 47°11' W 122°41'0 0.0
2015-May-23 21:31N 47°11' W 122°41'3 3.1
2015-May-23 20:33N 47°10' W 122°36'3 3.0
2015-May-23 19:33N 47°11' W 122°40'3 3.0
2015-May-23 18:33N 47°10' W 122°36'3 3.0
2015-May-23 17:33N 47°11' W 122°41'3 5.8
2015-May-23 17:02N 47°10' W 122°36'3 6.3
2015-May-23 16:33N 47°11' W 122°41'3 6.7
2015-May-23 16:06N 47°10' W 122°36'3 4.6
2015-May-23 15:33N 47°11' W 122°40'0 0.2
2015-May-23 14:33N 47°11' W 122°40'3 2.7
2015-May-23 13:35N 47°10' W 122°36'0 6.6
2015-May-23 13:32N 47°11' W 122°36'0 0.4
2015-May-23 12:33N 47°10' W 122°36'3 0.4
2015-May-23 05:33N 47°11' W 122°40'2 2.1
2015-May-23 04:33N 47°11' W 122°37'1 0.5
2015-May-23 03:32N 47°10' W 122°36'0 0.0
2015-May-23 02:33N 47°10' W 122°36'0 0.0
2015-May-23 01:33N 47°10' W 122°36'2 1.6
2015-May-23 00:33N 47°11' W 122°38'0 0.3
2015-May-22 23:33N 47°11' W 122°39'2 3.8
2015-May-22 23:03N 47°10' W 122°36'3 5.8
2015-May-22 22:33N 47°11' W 122°40'0 0.1
2015-May-22 21:31N 47°11' W 122°41'3 3.1
2015-May-22 20:33N 47°10' W 122°36'0 0.0
2015-May-22 20:32N 47°10' W 122°36'3 2.4
2015-May-22 19:18N 47°11' W 122°40'3 4.4
2015-May-22 18:37N 47°10' W 122°36'0 0.0
2015-May-22 18:33N 47°10' W 122°36'3 2.9
2015-May-22 17:33N 47°11' W 122°40'0 0.1
2015-May-22 16:33N 47°11' W 122°40'0 0.1
2015-May-22 15:32N 47°11' W 122°40'0 0.1
2015-May-22 14:33N 47°11' W 122°40'3 2.5
2015-May-22 13:33N 47°10' W 122°36'0 0.0
2015-May-22 12:33N 47°10' W 122°36'1 0.1
2015-May-22 04:33N 47°10' W 122°37'1 1.0
2015-May-22 03:33N 47°10' W 122°36'3 3.8
2015-May-22 02:48N 47°11' W 122°40'311.2
2015-May-22 02:33N 47°11' W 122°36'0 0.2
2015-May-22 01:33N 47°11' W 122°37'2 2.2
2015-May-22 00:33N 47°11' W 122°40'0 0.5
2015-May-21 23:33N 47°11' W 122°40'1 2.0
2015-May-21 22:50N 47°11' W 122°38'1 4.7
2015-May-21 22:32N 47°11' W 122°40'0 0.1
2015-May-21 21:27N 47°11' W 122°40'3 3.2
2015-May-21 20:33N 47°10' W 122°36'3 2.9
2015-May-21 19:33N 47°11' W 122°40'3 3.0
2015-May-21 18:33N 47°10' W 122°36'3 2.5
2015-May-21 17:23N 47°11' W 122°40'0 0.0
2015-May-21 16:24N 47°11' W 122°41'0 0.1
2015-May-21 15:31N 47°11' W 122°41'1 0.6
2015-May-21 14:33N 47°11' W 122°40'2 2.4
2015-May-21 13:33N 47°11' W 122°36'0 0.3
2015-May-21 12:36N 47°10' W 122°36'0 0.0
2015-May-21 12:28N 47°10' W 122°36'0 0.0
2015-May-21 03:19N 47°10' W 122°36'0 0.4
2015-May-21 02:33N 47°11' W 122°36'0 0.1
2015-May-21 01:33N 47°11' W 122°37'0 4.6
2015-May-21 01:27N 47°10' W 122°36'3 3.3
2015-May-21 00:33N 47°11' W 122°41'0 0.0
2015-May-20 23:28N 47°11' W 122°41'3 5.4
2015-May-20 22:55N 47°11' W 122°36'3 6.1
2015-May-20 22:27N 47°11' W 122°40'0 0.1
2015-May-20 21:30N 47°11' W 122°41'3 3.2
2015-May-20 20:34N 47°10' W 122°36'3 2.7
2015-May-20 19:33N 47°11' W 122°40'3 2.7
2015-May-20 18:33N 47°10' W 122°36'3 2.5
2015-May-20 17:23N 47°11' W 122°40'0 0.6
2015-May-20 16:33N 47°11' W 122°40'2 3.2
2015-May-20 15:48N 47°10' W 122°36'210.1
2015-May-20 15:33N 47°11' W 122°40'0 0.0
2015-May-20 14:33N 47°11' W 122°40'2 2.4
2015-May-20 13:33N 47°10' W 122°36'0 0.0
2015-May-20 12:33N 47°10' W 122°36'0 0.0
2015-May-20 03:24N 47°10' W 122°36'0 0.0
2015-May-20 02:38N 47°10' W 122°36'0 0.0
2015-May-20 02:33N 47°10' W 122°36'0 0.0
2015-May-20 01:34N 47°10' W 122°36'2 1.9
2015-May-20 00:33N 47°11' W 122°39'2 6.7
2015-May-20 00:16N 47°10' W 122°36'3 4.0
2015-May-19 23:32N 47°11' W 122°40'0 0.2
2015-May-19 22:32N 47°11' W 122°40'0 0.2
2015-May-19 21:28N 47°11' W 122°40'3 3.2
2015-May-19 20:33N 47°10' W 122°36'3 2.5
2015-May-19 19:23N 47°11' W 122°40'3 3.5
2015-May-19 18:33N 47°10' W 122°36'3 2.8
2015-May-19 17:29N 47°11' W 122°41'0 0.1
2015-May-19 16:32N 47°11' W 122°40'0 0.0
2015-May-19 15:33N 47°11' W 122°40'0 0.3
2015-May-19 14:33N 47°11' W 122°40'3 2.6
2015-May-19 13:33N 47°10' W 122°36'0 0.0
2015-May-19 12:33N 47°10' W 122°36'0 0.0
2015-May-19 03:21N 47°10' W 122°36'0 0.4
2015-May-19 02:33N 47°11' W 122°36'0 0.3
2015-May-19 01:33N 47°10' W 122°36'0 0.2
2015-May-19 01:26N 47°10' W 122°36'3 3.4
2015-May-19 00:33N 47°11' W 122°40'3 7.7
2015-May-19 00:10N 47°10' W 122°36'3 4.3
2015-May-18 23:28N 47°11' W 122°41'3 6.2
2015-May-18 22:59N 47°10' W 122°36'3 6.4
2015-May-18 22:31N 47°11' W 122°41'0 0.4
2015-May-18 21:24N 47°11' W 122°40'3 3.1
2015-May-18 20:32N 47°10' W 122°36'3 2.6
2015-May-18 19:33N 47°11' W 122°40'3 2.5
2015-May-18 18:32N 47°10' W 122°36'3 2.6
2015-May-18 17:33N 47°11' W 122°40'0 0.3
2015-May-18 16:32N 47°11' W 122°40'0 0.3
2015-May-18 15:33N 47°11' W 122°40'0 0.1
2015-May-18 14:33N 47°11' W 122°40'2 2.6
2015-May-18 13:36N 47°10' W 122°36'0 0.0
2015-May-18 13:33N 47°10' W 122°36'0 0.0
2015-May-18 12:33N 47°10' W 122°36'1 0.2
2015-May-18 04:33N 47°10' W 122°38'2 5.7
2015-May-18 04:15N 47°11' W 122°40'3 3.7
2015-May-18 03:33N 47°10' W 122°36'0 0.0
2015-May-18 02:32N 47°10' W 122°36'0 0.4
2015-May-18 01:33N 47°11' W 122°37'3 2.7
2015-May-18 00:34N 47°11' W 122°41'0 0.2
2015-May-17 23:26N 47°11' W 122°40'3 7.5
2015-May-17 23:03N 47°10' W 122°36'3 3.9
2015-May-17 22:24N 47°11' W 122°40'1 0.7
2015-May-17 21:21N 47°11' W 122°39'2 2.8
2015-May-17 20:42N 47°10' W 122°36'0 0.0
2015-May-17 20:34N 47°10' W 122°36'0 0.0
2015-May-17 20:12N 47°10' W 122°36'3 4.5
2015-May-17 19:33N 47°11' W 122°40'0 0.1
2015-May-17 19:16N 47°11' W 122°41'3 4.2
2015-May-17 18:34N 47°10' W 122°36'2 2.4
2015-May-17 17:33N 47°11' W 122°40'1 0.4
2015-May-17 16:16N 47°11' W 122°41'0 0.0
2015-May-17 15:16N 47°11' W 122°41'0 0.4
2015-May-17 14:32N 47°11' W 122°40'3 2.8
2015-May-17 13:33N 47°10' W 122°36'0 0.3
2015-May-17 13:32N 47°10' W 122°36'3 0.3
2015-May-17 05:33N 47°11' W 122°40'3 2.6
2015-May-17 04:33N 47°10' W 122°36'0 0.0
2015-May-17 03:33N 47°10' W 122°36'0 0.4
2015-May-17 02:33N 47°11' W 122°37'3 4.9
2015-May-17 02:01N 47°11' W 122°40'3 5.6
2015-May-17 01:33N 47°11' W 122°36'3 2.5
2015-May-17 00:29N 47°11' W 122°40'0 0.0
2015-May-16 23:30N 47°11' W 122°40'0 0.4
2015-May-16 22:27N 47°11' W 122°40'0 0.5
2015-May-16 21:26N 47°11' W 122°40'3 3.3
2015-May-16 20:33N 47°10' W 122°36'3 3.0
2015-May-16 19:33N 47°11' W 122°41'3 3.0
2015-May-16 18:33N 47°10' W 122°36'3 2.5
2015-May-16 17:33N 47°11' W 122°40'0 0.2
2015-May-16 16:33N 47°11' W 122°40'0 0.3
2015-May-16 15:33N 47°11' W 122°40'0 0.3
2015-May-16 14:32N 47°11' W 122°40'3 2.7
2015-May-16 13:33N 47°10' W 122°36'0 0.0
2015-May-16 12:33N 47°10' W 122°36'0 0.0
2015-May-16 06:07N 47°10' W 122°36'3 4.7
2015-May-16 05:33N 47°11' W 122°40'3 2.6
2015-May-16 04:33N 47°10' W 122°36'0 0.0
2015-May-16 03:33N 47°10' W 122°36'0 0.0
2015-May-16 02:32N 47°10' W 122°36'0 0.0
2015-May-16 01:33N 47°10' W 122°36'3 2.9
2015-May-16 00:33N 47°11' W 122°40'0 0.0
2015-May-15 23:32N 47°11' W 122°40'0 0.2
2015-May-15 22:44N 47°11' W 122°40'0 1.2
2015-May-15 22:33N 47°11' W 122°41'0 0.0
2015-May-15 21:26N 47°11' W 122°40'3 2.5
2015-May-15 20:14N 47°10' W 122°36'3 3.5
2015-May-15 19:23N 47°11' W 122°40'3 3.4
2015-May-15 18:31N 47°10' W 122°36'3 2.9
2015-May-15 17:27N 47°11' W 122°41'0 0.4
2015-May-15 16:32N 47°11' W 122°40'0 0.2
2015-May-15 15:33N 47°11' W 122°40'0 0.1
2015-May-15 14:33N 47°11' W 122°40'3 2.6
2015-May-15 13:33N 47°10' W 122°36'0 0.0
2015-May-15 12:33N 47°10' W 122°36'0 0.0
2015-May-15 04:28N 47°10' W 122°36'0 0.0
2015-May-15 03:18N 47°10' W 122°36'1 0.9
2015-May-15 02:33N 47°11' W 122°37'0 0.3
2015-May-15 01:33N 47°11' W 122°37'3 2.6
2015-May-15 00:31N 47°11' W 122°41'0 0.1
2015-May-14 23:31N 47°11' W 122°40'0 0.0
2015-May-14 22:30N 47°11' W 122°40'0 0.0
2015-May-14 21:28N 47°11' W 122°40'3 3.2
2015-May-14 20:33N 47°10' W 122°36'3 2.7
2015-May-14 19:25N 47°11' W 122°41'3 3.5
2015-May-14 18:33N 47°10' W 122°36'3 2.6
2015-May-14 17:33N 47°11' W 122°40'0 0.1
2015-May-14 16:33N 47°11' W 122°40'0 0.0
2015-May-14 15:33N 47°11' W 122°40'0 0.1
2015-May-14 14:33N 47°11' W 122°40'3 2.6
2015-May-14 13:33N 47°10' W 122°36'0 0.0
2015-May-14 12:33N 47°10' W 122°36'  

Dump ship's entire track history